Time;durP1;ratioP1;P1;durP2;ratioP2;P2;SDS_P1;SDS_P2;PMS_P1;PMS_P2;Temp;Humidity;BMP_temperature;BMP_pressure;BME280_temperature;BME280_humidity;BME280_pressure;Samples;Min_cycle;Max_cycle;Signal;HPM_P1;HPM_P2
2023/12/29 00:02:05;;;;;;;3.20;3.00;;;9.20;99.90;;;;;;5053022;28;20227;-68
2023/12/29 00:04:30;;;;;;;4.60;2.90;;;9.20;99.90;;;;;;5052643;28;20921;-68
2023/12/29 00:06:56;;;;;;;3.30;3.00;;;9.20;99.90;;;;;;5051896;28;20241;-68
2023/12/29 00:09:21;;;;;;;3.10;2.80;;;9.20;99.90;;;;;;5052534;28;20177;-68
2023/12/29 00:11:51;;;;;;;2.70;2.50;;;9.20;99.90;;;;;;5052413;28;20265;-68
2023/12/29 00:14:17;;;;;;;3.67;3.37;;;9.20;99.90;;;;;;5052335;28;20609;-68
2023/12/29 00:16:44;;;;;;;2.80;2.60;;;9.20;99.90;;;;;;5051052;28;20422;-68
2023/12/29 00:19:10;;;;;;;4.03;3.53;;;9.20;99.90;;;;;;5052082;28;20454;-68
2023/12/29 00:21:36;;;;;;;2.80;2.60;;;9.20;99.90;;;;;;5052313;28;20447;-68
2023/12/29 00:24:01;;;;;;;3.40;3.10;;;9.20;99.90;;;;;;5052518;28;20924;-68
2023/12/29 00:26:27;;;;;;;3.77;3.47;;;9.20;99.90;;;;;;5051846;28;20189;-68
2023/12/29 00:28:54;;;;;;;3.07;2.87;;;9.10;99.90;;;;;;5052383;28;20709;-68
2023/12/29 00:31:19;;;;;;;3.70;3.40;;;9.10;99.90;;;;;;5052206;28;20181;-68
2023/12/29 00:33:45;;;;;;;3.83;3.53;;;9.00;99.90;;;;;;5052051;28;20407;-68
2023/12/29 00:36:20;;;;;;;3.50;3.20;;;9.10;99.90;;;;;;5052109;28;20181;-68
2023/12/29 00:38:45;;;;;;;3.17;2.87;;;9.10;99.90;;;;;;5051858;28;20248;-68
2023/12/29 00:41:11;;;;;;;3.90;3.50;;;9.10;99.90;;;;;;5051830;28;20483;-68
2023/12/29 00:43:37;;;;;;;3.33;3.03;;;9.00;99.90;;;;;;5051971;28;20169;-68
2023/12/29 00:46:05;;;;;;;3.60;3.30;;;9.10;99.90;;;;;;5051733;28;20197;-68
2023/12/29 00:48:31;;;;;;;3.60;3.27;;;9.10;99.90;;;;;;5051554;28;20173;-68
2023/12/29 00:50:57;;;;;;;3.80;3.50;;;9.20;99.90;;;;;;5051892;28;20853;-68
2023/12/29 00:53:23;;;;;;;3.47;3.17;;;9.30;99.90;;;;;;5051585;28;20416;-66
2023/12/29 00:55:48;;;;;;;3.57;3.27;;;9.30;99.90;;;;;;5051845;28;20173;-68
2023/12/29 00:58:14;;;;;;;3.20;2.90;;;9.30;99.90;;;;;;5051371;28;20260;-68
2023/12/29 01:00:39;;;;;;;3.37;3.10;;;9.30;99.90;;;;;;5051661;28;20545;-68
2023/12/29 01:03:05;;;;;;;3.27;2.97;;;9.30;99.90;;;;;;5051888;28;20173;-68
2023/12/29 01:05:30;;;;;;;4.23;3.07;;;9.30;99.90;;;;;;5051985;28;20184;-68
2023/12/29 01:07:56;;;;;;;3.00;2.80;;;9.30;99.90;;;;;;5051600;28;20178;-68
2023/12/29 01:10:21;;;;;;;4.20;3.60;;;9.30;99.90;;;;;;5051820;28;20224;-68
2023/12/29 01:12:47;;;;;;;3.10;2.87;;;9.30;99.90;;;;;;5051844;28;20158;-68
2023/12/29 01:15:13;;;;;;;4.80;3.37;;;9.30;99.90;;;;;;5052016;28;20170;-68
2023/12/29 01:17:38;;;;;;;4.63;4.23;;;9.30;99.90;;;;;;5050142;28;21003;-68
2023/12/29 01:20:04;;;;;;;3.10;2.80;;;9.30;99.90;;;;;;5051817;28;20220;-68
2023/12/29 01:22:30;;;;;;;4.70;3.73;;;9.30;99.90;;;;;;5051823;28;20158;-68
2023/12/29 01:24:58;;;;;;;3.40;3.20;;;9.30;99.90;;;;;;5051776;28;20458;-68
2023/12/29 01:27:24;;;;;;;4.70;3.60;;;9.30;99.90;;;;;;5052224;28;20823;-68
2023/12/29 01:29:49;;;;;;;3.87;3.47;;;9.30;99.90;;;;;;5053880;28;20424;-68
2023/12/29 01:32:14;;;;;;;3.97;3.67;;;9.20;99.90;;;;;;5055166;28;20170;-68
2023/12/29 01:34:40;;;;;;;3.87;3.57;;;9.20;99.90;;;;;;5055274;28;20642;-68
2023/12/29 01:37:05;;;;;;;4.43;4.00;;;9.20;99.90;;;;;;5054934;28;20169;-68
2023/12/29 01:39:33;;;;;;;3.50;3.20;;;9.30;99.90;;;;;;5055116;28;20177;-68
2023/12/29 01:41:58;;;;;;;4.60;4.20;;;9.30;99.90;;;;;;5054916;28;20209;-68
2023/12/29 01:44:24;;;;;;;4.43;4.03;;;9.40;99.90;;;;;;5053806;28;20427;-68
2023/12/29 01:46:51;;;;;;;6.10;4.40;;;9.40;99.90;;;;;;5054753;28;20205;-67
2023/12/29 01:49:18;;;;;;;4.20;3.80;;;9.40;99.90;;;;;;5055116;28;20169;-68
2023/12/29 01:51:48;;;;;;;4.07;3.67;;;9.40;99.90;;;;;;5054835;28;20436;-67
2023/12/29 01:54:14;;;;;;;4.43;4.03;;;9.50;99.90;;;;;;5054622;28;20489;-68
2023/12/29 01:56:41;;;;;;;4.00;3.67;;;9.40;99.90;;;;;;5054702;28;20428;-68
2023/12/29 01:59:07;;;;;;;5.70;3.80;;;9.40;99.90;;;;;;5054815;28;20740;-68
2023/12/29 02:01:33;;;;;;;4.33;3.80;;;9.40;99.90;;;;;;5054315;28;20455;-68
2023/12/29 02:03:58;;;;;;;4.07;3.67;;;9.40;99.90;;;;;;5054730;28;20197;-68
2023/12/29 02:06:25;;;;;;;4.70;4.30;;;9.40;99.90;;;;;;5054187;28;20949;-67
2023/12/29 02:08:51;;;;;;;4.90;4.17;;;9.40;99.90;;;;;;5054363;28;20174;-68
2023/12/29 02:11:17;;;;;;;5.97;4.43;;;9.30;99.90;;;;;;5054483;28;20578;-68
2023/12/29 02:13:43;;;;;;;6.40;4.50;;;9.40;99.90;;;;;;5054415;28;20419;-68
2023/12/29 02:16:30;;;;;;;4.17;3.83;;;9.40;99.90;;;;;;5054272;28;20420;-68
2023/12/29 02:18:58;;;;;;;4.57;4.17;;;9.40;99.90;;;;;;5054383;28;20584;-68
2023/12/29 02:21:26;;;;;;;3.53;3.17;;;9.40;99.90;;;;;;5054350;28;20875;-68
2023/12/29 02:23:52;;;;;;;6.10;5.40;;;9.40;99.90;;;;;;5054209;28;20419;-68
2023/12/29 02:26:22;;;;;;;4.30;3.90;;;9.50;99.90;;;;;;5054262;28;20444;-68
2023/12/29 02:28:56;;;;;;;4.90;4.47;;;9.40;99.90;;;;;;5054008;28;20158;-68
2023/12/29 02:31:27;;;;;;;4.50;4.20;;;9.50;99.90;;;;;;5053903;28;20450;-67
2023/12/29 02:33:53;;;;;;;5.67;4.30;;;9.40;99.90;;;;;;5054272;28;20848;-68
2023/12/29 02:36:20;;;;;;;5.23;4.40;;;9.40;99.90;;;;;;5053760;28;20519;-68
2023/12/29 02:38:46;;;;;;;4.73;4.30;;;9.50;99.90;;;;;;5052823;28;20478;-68
2023/12/29 02:41:13;;;;;;;3.93;3.63;;;9.50;99.90;;;;;;5053909;28;20444;-68
2023/12/29 02:43:38;;;;;;;4.70;4.30;;;9.40;99.90;;;;;;5053909;28;20284;-68
2023/12/29 02:46:04;;;;;;;4.83;4.43;;;9.40;99.90;;;;;;5053609;28;21192;-68
2023/12/29 02:48:29;;;;;;;4.23;3.93;;;9.30;99.90;;;;;;5053570;28;20587;-68
2023/12/29 02:50:55;;;;;;;4.80;4.30;;;9.30;99.90;;;;;;5053675;28;20193;-68
2023/12/29 02:53:20;;;;;;;4.93;4.43;;;9.20;99.90;;;;;;5053499;28;20179;-68
2023/12/29 02:55:46;;;;;;;5.87;4.60;;;9.20;99.90;;;;;;5053561;28;20170;-68
2023/12/29 02:58:11;;;;;;;7.17;5.70;;;9.20;99.90;;;;;;5053128;28;20227;-68
2023/12/29 03:00:37;;;;;;;5.07;4.40;;;9.20;99.90;;;;;;5053222;28;20209;-68
2023/12/29 03:03:02;;;;;;;10.13;5.10;;;9.20;99.90;;;;;;5053551;28;20209;-68
2023/12/29 03:05:28;;;;;;;4.90;4.40;;;9.20;99.90;;;;;;5053334;28;20583;-68
2023/12/29 03:07:53;;;;;;;5.20;4.70;;;9.20;99.90;;;;;;5053235;28;20165;-68
2023/12/29 03:10:19;;;;;;;4.50;4.10;;;9.20;99.90;;;;;;5053262;28;20186;-68
2023/12/29 03:12:45;;;;;;;6.17;5.53;;;9.20;99.90;;;;;;5051956;28;20166;-68
2023/12/29 03:15:10;;;;;;;4.63;4.27;;;9.20;99.90;;;;;;5053400;28;20811;-68
2023/12/29 03:17:35;;;;;;;4.90;4.50;;;9.20;99.90;;;;;;5052870;28;20173;-68
2023/12/29 03:20:02;;;;;;;4.47;4.07;;;9.20;99.90;;;;;;5053221;28;20177;-68
2023/12/29 03:22:28;;;;;;;4.23;3.93;;;9.20;99.90;;;;;;5053075;28;20256;-68
2023/12/29 03:24:53;;;;;;;4.33;3.93;;;9.20;99.90;;;;;;5053138;28;20490;-68
2023/12/29 03:27:19;;;;;;;4.70;4.30;;;9.10;99.90;;;;;;5052625;28;20670;-68
2023/12/29 03:29:44;;;;;;;5.20;4.80;;;9.10;99.90;;;;;;5052976;28;20174;-68
2023/12/29 03:32:10;;;;;;;5.70;5.20;;;9.10;99.90;;;;;;5052893;28;20264;-68
2023/12/29 03:34:35;;;;;;;5.63;4.03;;;9.10;99.90;;;;;;5052948;28;20635;-68
2023/12/29 03:37:01;;;;;;;4.70;4.17;;;9.10;99.90;;;;;;5051161;28;20260;-68
2023/12/29 03:39:26;;;;;;;5.30;4.80;;;9.00;99.90;;;;;;5052773;28;20177;-68
2023/12/29 03:41:52;;;;;;;5.20;4.80;;;9.00;99.90;;;;;;5052617;28;20205;-68
2023/12/29 03:44:17;;;;;;;4.30;3.90;;;8.90;99.90;;;;;;5052982;28;20178;-68
2023/12/29 03:46:43;;;;;;;4.53;4.13;;;8.90;99.90;;;;;;5052488;28;20854;-68
2023/12/29 03:49:09;;;;;;;5.73;4.10;;;8.90;99.90;;;;;;5052815;28;20181;-68
2023/12/29 03:51:34;;;;;;;4.73;4.20;;;8.80;99.90;;;;;;5052197;28;20428;-68
2023/12/29 03:54:00;;;;;;;3.50;3.20;;;8.80;99.90;;;;;;5052528;28;20193;-67
2023/12/29 03:56:26;;;;;;;3.80;3.50;;;8.90;99.90;;;;;;5052162;28;20639;-68
2023/12/29 03:58:52;;;;;;;4.03;3.60;;;8.80;99.90;;;;;;5052497;28;20424;-68
2023/12/29 04:01:17;;;;;;;4.50;4.10;;;8.80;99.90;;;;;;5052273;28;20594;-68
2023/12/29 04:03:43;;;;;;;4.60;3.43;;;8.80;99.90;;;;;;5052512;28;20169;-68
2023/12/29 04:06:10;;;;;;;4.10;3.70;;;8.80;99.90;;;;;;5052196;28;20193;-68
2023/12/29 04:08:37;;;;;;;4.27;3.87;;;8.70;99.90;;;;;;5052051;28;20196;-67
2023/12/29 04:11:03;;;;;;;3.40;3.00;;;8.70;99.90;;;;;;5052157;28;20467;-67
2023/12/29 04:13:29;;;;;;;3.83;3.40;;;8.80;99.90;;;;;;5052149;28;20427;-67
2023/12/29 04:15:54;;;;;;;4.47;3.50;;;8.70;99.90;;;;;;5052521;28;20416;-67
2023/12/29 04:18:21;;;;;;;5.87;3.60;;;8.70;99.90;;;;;;5052023;28;20423;-68
2023/12/29 04:20:47;;;;;;;3.83;3.43;;;8.70;99.90;;;;;;5052078;28;20193;-66
2023/12/29 04:23:13;;;;;;;3.97;3.67;;;8.70;99.90;;;;;;5052190;28;20431;-67
2023/12/29 04:25:39;;;;;;;4.00;3.70;;;8.70;99.90;;;;;;5052189;28;20452;-67
2023/12/29 04:28:04;;;;;;;4.00;3.60;;;8.70;99.90;;;;;;5051761;28;20212;-67
2023/12/29 04:30:30;;;;;;;4.60;4.20;;;8.80;99.90;;;;;;5052059;28;20247;-67
2023/12/29 04:32:55;;;;;;;4.47;3.70;;;8.80;99.90;;;;;;5052859;28;20225;-67
2023/12/29 04:35:21;;;;;;;4.03;3.73;;;8.80;99.90;;;;;;5052359;28;20169;-67
2023/12/29 04:37:47;;;;;;;4.23;3.20;;;8.80;99.90;;;;;;5051823;28;20176;-67
2023/12/29 04:40:12;;;;;;;4.70;4.10;;;8.80;99.90;;;;;;5051949;28;20185;-67
2023/12/29 04:42:38;;;;;;;4.37;3.97;;;8.70;99.90;;;;;;5052098;28;20197;-67
2023/12/29 04:45:05;;;;;;;3.77;3.23;;;8.60;99.90;;;;;;5050694;28;20216;-67
2023/12/29 04:47:30;;;;;;;5.57;5.17;;;8.50;99.90;;;;;;5051498;28;20198;-67
2023/12/29 04:49:56;;;;;;;4.30;3.90;;;8.50;99.90;;;;;;5051813;28;20420;-67
2023/12/29 04:52:22;;;;;;;4.07;3.50;;;8.50;99.90;;;;;;5051737;28;20166;-67
2023/12/29 04:54:47;;;;;;;4.90;4.50;;;8.50;99.90;;;;;;5052293;28;20708;-67
2023/12/29 04:57:13;;;;;;;4.13;3.83;;;8.50;99.90;;;;;;5051927;28;20540;-67
2023/12/29 04:59:39;;;;;;;4.20;3.80;;;8.40;99.90;;;;;;5051906;28;20253;-67
2023/12/29 05:02:04;;;;;;;4.57;4.07;;;8.40;99.90;;;;;;5052165;28;20582;-67
2023/12/29 05:04:30;;;;;;;4.70;4.30;;;8.40;99.90;;;;;;5055822;28;20169;-67
2023/12/29 05:06:55;;;;;;;5.00;4.50;;;8.40;99.90;;;;;;5055759;28;20213;-67
2023/12/29 05:09:21;;;;;;;5.50;5.00;;;8.40;99.90;;;;;;5055851;28;20170;-67
2023/12/29 05:11:46;;;;;;;4.70;4.30;;;8.40;99.90;;;;;;5055755;28;20682;-67
2023/12/29 05:14:12;;;;;;;4.07;3.77;;;8.50;99.90;;;;;;5055835;28;20180;-67
2023/12/29 05:16:37;;;;;;;6.50;4.90;;;8.50;99.90;;;;;;5055504;28;20169;-67
2023/12/29 05:19:03;;;;;;;4.37;4.00;;;8.60;99.90;;;;;;5055548;28;20583;-67
2023/12/29 05:21:28;;;;;;;4.10;3.80;;;8.60;99.90;;;;;;5054213;28;20193;-67
2023/12/29 05:23:54;;;;;;;4.20;3.90;;;8.60;99.90;;;;;;5055609;28;20201;-67
2023/12/29 05:26:19;;;;;;;5.07;4.50;;;8.70;99.90;;;;;;5054081;28;20624;-67
2023/12/29 05:28:45;;;;;;;4.50;3.90;;;8.60;99.90;;;;;;5055579;28;20639;-67
2023/12/29 05:31:10;;;;;;;4.90;4.40;;;8.60;99.90;;;;;;5055364;28;20280;-67
2023/12/29 05:33:36;;;;;;;4.87;3.87;;;8.60;99.90;;;;;;5055298;28;20174;-67
2023/12/29 05:36:09;;;;;;;6.87;3.50;;;8.60;99.90;;;;;;5055229;28;20201;-67
2023/12/29 05:38:35;;;;;;;5.10;4.60;;;8.50;99.90;;;;;;5054926;28;20650;-67
2023/12/29 05:41:04;;;;;;;6.00;4.30;;;8.50;99.90;;;;;;5055073;28;20454;-67
2023/12/29 05:43:32;;;;;;;5.63;4.37;;;8.40;99.90;;;;;;5055089;28;20786;-67
2023/12/29 05:45:58;;;;;;;5.23;4.37;;;8.40;99.90;;;;;;5054853;28;20444;-67
2023/12/29 05:48:24;;;;;;;5.90;4.23;;;8.40;99.90;;;;;;5054768;28;20420;-67
2023/12/29 05:50:53;;;;;;;6.13;5.00;;;8.40;99.90;;;;;;5054774;28;20526;-67
2023/12/29 05:53:18;;;;;;;4.80;4.40;;;8.40;99.90;;;;;;5054500;28;20201;-67
2023/12/29 05:55:44;;;;;;;7.17;5.03;;;8.40;99.90;;;;;;5054732;28;20424;-67
2023/12/29 05:58:10;;;;;;;5.67;4.67;;;8.40;99.90;;;;;;5054718;28;20327;-67
2023/12/29 06:00:36;;;;;;;4.93;4.43;;;8.30;99.90;;;;;;5078530;22;20917;-67
2023/12/29 06:03:04;;;;;;;5.67;5.17;;;8.30;99.90;;;;;;5072203;28;20303;-67
2023/12/29 06:05:29;;;;;;;5.43;4.93;;;8.40;99.90;;;;;;5074404;28;20407;-67
2023/12/29 06:07:55;;;;;;;4.33;3.93;;;8.40;99.90;;;;;;5074262;28;20829;-67
2023/12/29 06:10:20;;;;;;;5.90;5.43;;;8.40;99.90;;;;;;5074288;28;20240;-67
2023/12/29 06:12:46;;;;;;;4.83;4.33;;;8.40;99.90;;;;;;5074417;28;20521;-67
2023/12/29 06:15:13;;;;;;;6.20;5.10;;;8.40;99.90;;;;;;5073033;28;20175;-67
2023/12/29 06:17:40;;;;;;;4.70;4.30;;;8.40;99.90;;;;;;5074145;28;20252;-67
2023/12/29 06:20:07;;;;;;;4.60;4.20;;;8.40;99.90;;;;;;5074317;28;20421;-68
2023/12/29 06:22:32;;;;;;;3.93;3.60;;;8.40;99.90;;;;;;5074087;28;20450;-67
2023/12/29 06:24:58;;;;;;;4.30;3.90;;;8.40;99.90;;;;;;5074142;28;20415;-67
2023/12/29 06:27:25;;;;;;;6.50;5.87;;;8.40;99.90;;;;;;5073744;28;20228;-67
2023/12/29 06:29:50;;;;;;;4.80;4.20;;;8.40;99.90;;;;;;5074049;28;20251;-67
2023/12/29 06:32:16;;;;;;;4.53;4.13;;;8.40;99.90;;;;;;5073893;28;21058;-67
2023/12/29 06:34:41;;;;;;;4.40;4.00;;;8.40;99.90;;;;;;5073978;28;20169;-68
2023/12/29 06:37:07;;;;;;;5.67;5.17;;;8.40;99.90;;;;;;5073664;28;20173;-67
2023/12/29 06:39:32;;;;;;;4.67;4.17;;;8.50;99.90;;;;;;5073793;28;20572;-67
2023/12/29 06:41:58;;;;;;;5.10;4.10;;;8.50;99.90;;;;;;5073696;28;20203;-67
2023/12/29 06:44:23;;;;;;;6.20;5.67;;;8.50;99.90;;;;;;5074056;28;20189;-67
2023/12/29 06:46:49;;;;;;;8.50;5.43;;;8.50;99.90;;;;;;5073425;28;20197;-67
2023/12/29 06:49:14;;;;;;;5.40;5.00;;;8.50;99.90;;;;;;5073650;28;20215;-67
2023/12/29 06:51:40;;;;;;;4.77;4.30;;;8.40;99.90;;;;;;5073588;28;20208;-67
2023/12/29 06:54:06;;;;;;;6.03;5.00;;;8.50;99.90;;;;;;5073469;28;20165;-67
2023/12/29 06:56:32;;;;;;;6.80;5.00;;;8.40;99.90;;;;;;5071991;28;20423;-67
2023/12/29 06:58:58;;;;;;;5.43;4.93;;;8.40;99.90;;;;;;5073465;28;20457;-68
2023/12/29 07:01:24;;;;;;;5.00;4.60;;;8.40;99.90;;;;;;5073165;28;20287;-67
2023/12/29 07:03:49;;;;;;;7.47;6.87;;;8.40;99.90;;;;;;5073425;28;20161;-67
2023/12/29 07:06:15;;;;;;;11.03;9.90;;;8.40;99.90;;;;;;5073085;28;20442;-67
2023/12/29 07:08:40;;;;;;;10.33;9.43;;;8.40;99.90;;;;;;5073084;28;20177;-67
2023/12/29 07:11:11;;;;;;;11.50;10.50;;;8.40;99.90;;;;;;5073034;28;20212;-67
2023/12/29 07:13:37;;;;;;;6.13;5.53;;;8.40;99.90;;;;;;5073182;28;20171;-67
2023/12/29 07:16:02;;;;;;;4.90;4.50;;;8.40;99.90;;;;;;5073084;28;20775;-67
2023/12/29 07:18:28;;;;;;;5.77;4.93;;;8.50;99.90;;;;;;5072972;28;20181;-67
2023/12/29 07:20:53;;;;;;;4.63;4.23;;;8.50;99.90;;;;;;5072961;28;20196;-67
2023/12/29 07:23:19;;;;;;;4.70;4.27;;;8.50;99.90;;;;;;5072888;28;20172;-68
2023/12/29 07:25:44;;;;;;;4.60;4.20;;;8.50;99.90;;;;;;5072367;28;20223;-67
2023/12/29 07:28:10;;;;;;;5.60;4.47;;;8.50;99.90;;;;;;5072937;28;20175;-67
2023/12/29 07:30:35;;;;;;;4.40;3.63;;;8.50;99.90;;;;;;5072744;28;20630;-67
2023/12/29 07:33:02;;;;;;;5.70;5.20;;;8.50;99.90;;;;;;5072951;28;20196;-67
2023/12/29 07:35:27;;;;;;;8.13;5.27;;;8.50;99.90;;;;;;5072717;28;20197;-67
2023/12/29 07:37:53;;;;;;;4.30;3.90;;;8.50;99.90;;;;;;5072452;28;20636;-67
2023/12/29 07:40:18;;;;;;;5.13;4.40;;;8.50;99.90;;;;;;5072865;28;20173;-67
2023/12/29 07:42:46;;;;;;;4.50;4.10;;;8.50;99.90;;;;;;5072743;28;20252;-67
2023/12/29 07:45:12;;;;;;;4.90;4.50;;;8.50;99.90;;;;;;5072583;28;20174;-67
2023/12/29 07:47:37;;;;;;;4.50;4.10;;;8.50;99.90;;;;;;5072603;28;20810;-67
2023/12/29 07:50:04;;;;;;;4.90;3.90;;;8.60;99.90;;;;;;5072551;28;20161;-67
2023/12/29 07:52:30;;;;;;;7.70;4.13;;;8.60;99.90;;;;;;5072095;28;20660;-67
2023/12/29 07:54:55;;;;;;;4.93;4.53;;;8.60;99.90;;;;;;5072483;28;20422;-67
2023/12/29 07:57:21;;;;;;;7.30;4.97;;;8.60;99.90;;;;;;5072314;28;20442;-67
2023/12/29 07:59:46;;;;;;;4.30;4.00;;;8.70;99.90;;;;;;5072409;28;20637;-67
2023/12/29 08:02:12;;;;;;;4.83;4.33;;;8.70;99.90;;;;;;5072227;28;20657;-67
2023/12/29 08:04:38;;;;;;;4.87;4.47;;;8.70;99.90;;;;;;5072358;28;20180;-67
2023/12/29 08:07:04;;;;;;;5.63;5.13;;;8.80;99.90;;;;;;5072101;28;20200;-67
2023/12/29 08:09:29;;;;;;;4.83;4.40;;;8.80;99.90;;;;;;5072299;28;20173;-67
2023/12/29 08:11:55;;;;;;;4.97;4.57;;;8.80;99.90;;;;;;5072114;28;21000;-67
2023/12/29 08:14:21;;;;;;;5.70;4.47;;;8.80;99.90;;;;;;5072270;28;20176;-68
2023/12/29 08:16:47;;;;;;;4.17;3.80;;;8.80;99.90;;;;;;5072055;28;20208;-67
2023/12/29 08:19:12;;;;;;;4.10;3.70;;;8.90;99.90;;;;;;5072120;28;20415;-67
2023/12/29 08:21:38;;;;;;;4.37;3.90;;;8.90;99.90;;;;;;5072081;28;20275;-67
2023/12/29 08:24:04;;;;;;;7.47;4.20;;;8.90;99.90;;;;;;5072145;28;20173;-67
2023/12/29 08:26:29;;;;;;;4.20;3.90;;;8.90;99.90;;;;;;5071909;28;20200;-67
2023/12/29 08:28:55;;;;;;;5.30;4.10;;;8.90;99.90;;;;;;5070802;28;20176;-67
2023/12/29 08:31:22;;;;;;;4.37;3.97;;;9.00;99.90;;;;;;5071866;28;20276;-67
2023/12/29 08:33:48;;;;;;;5.50;3.80;;;9.00;99.90;;;;;;5072057;28;20176;-67
2023/12/29 08:36:17;;;;;;;4.83;4.30;;;9.00;99.90;;;;;;5071842;28;20783;-67
2023/12/29 08:38:43;;;;;;;4.43;4.03;;;9.00;99.90;;;;;;5075071;28;20822;-67
2023/12/29 08:41:08;;;;;;;5.53;4.93;;;9.00;99.90;;;;;;5076066;28;20441;-67
2023/12/29 08:43:36;;;;;;;4.93;4.43;;;9.10;99.90;;;;;;5076049;28;20649;-67
2023/12/29 08:46:01;;;;;;;5.43;3.90;;;9.10;99.90;;;;;;5075936;28;20242;-67
2023/12/29 08:48:27;;;;;;;5.93;5.33;;;9.10;99.90;;;;;;5075800;28;20415;-67
2023/12/29 08:50:52;;;;;;;6.23;4.50;;;9.10;99.90;;;;;;5075841;28;20549;-67
2023/12/29 08:53:18;;;;;;;4.83;4.43;;;9.10;99.90;;;;;;5075656;28;20161;-67
2023/12/29 08:55:44;;;;;;;4.43;4.03;;;9.10;99.90;;;;;;5075869;28;20191;-67
2023/12/29 08:58:09;;;;;;;4.90;4.03;;;9.10;99.90;;;;;;5075510;28;20169;-67
2023/12/29 09:00:35;;;;;;;6.20;4.40;;;9.10;99.90;;;;;;5075506;28;20662;-67
2023/12/29 09:03:00;;;;;;;9.80;4.70;;;9.10;99.90;;;;;;5075860;28;20188;-67
2023/12/29 09:05:26;;;;;;;4.40;4.00;;;9.10;99.90;;;;;;5075623;28;20208;-67
2023/12/29 09:07:51;;;;;;;6.30;4.33;;;9.00;99.90;;;;;;5075239;28;20204;-67
2023/12/29 09:10:17;;;;;;;5.00;4.07;;;9.00;99.90;;;;;;5075499;28;20165;-67
2023/12/29 09:12:43;;;;;;;4.83;4.33;;;9.00;99.90;;;;;;5075490;28;20195;-67
2023/12/29 09:15:09;;;;;;;4.87;3.90;;;9.00;99.90;;;;;;5075466;28;20498;-67
2023/12/29 09:17:34;;;;;;;5.77;4.50;;;9.10;99.90;;;;;;5075150;28;20842;-67
2023/12/29 09:20:00;;;;;;;4.00;3.70;;;9.10;99.90;;;;;;5075349;28;20260;-67
2023/12/29 09:22:26;;;;;;;7.27;4.10;;;9.20;99.90;;;;;;5075230;28;20283;-67
2023/12/29 09:24:51;;;;;;;3.40;3.10;;;9.30;99.90;;;;;;5075358;28;20429;-67
2023/12/29 09:27:17;;;;;;;7.67;3.40;;;9.40;99.90;;;;;;5075005;28;20684;-67
2023/12/29 09:29:43;;;;;;;4.00;3.70;;;9.60;99.90;;;;;;5075210;28;20240;-67
2023/12/29 09:32:08;;;;;;;3.27;3.07;;;9.70;99.90;;;;;;5075101;28;20204;-67
2023/12/29 09:34:34;;;;;;;3.40;3.10;;;9.70;99.90;;;;;;5075032;28;20169;-67
2023/12/29 09:36:59;;;;;;;2.87;2.67;;;9.60;99.90;;;;;;5074905;28;20184;-67
2023/12/29 09:39:25;;;;;;;3.30;3.00;;;9.60;99.90;;;;;;5075008;28;20541;-67
2023/12/29 09:42:01;;;;;;;5.40;3.10;;;9.60;99.90;;;;;;5074862;28;20208;-67
2023/12/29 09:44:30;;;;;;;3.40;2.90;;;9.70;99.90;;;;;;5074898;28;20660;-67
2023/12/29 09:47:02;;;;;;;3.17;2.87;;;10.00;99.90;;;;;;5074612;28;20458;-68
2023/12/29 09:49:36;;;;;;;3.93;3.07;;;10.10;99.90;;;;;;5074445;28;20422;-67
2023/12/29 09:52:03;;;;;;;3.67;2.70;;;10.40;99.90;;;;;;5074499;28;20438;-67
2023/12/29 09:54:30;;;;;;;3.40;3.10;;;10.40;99.90;;;;;;5074822;28;20796;-67
2023/12/29 09:56:56;;;;;;;2.87;2.57;;;10.40;99.90;;;;;;5074576;28;20794;-67
2023/12/29 09:59:23;;;;;;;5.03;2.53;;;10.70;99.90;;;;;;5074698;28;20426;-67
2023/12/29 10:01:50;;;;;;;3.03;2.73;;;10.80;99.90;;;;;;5074432;28;20295;-67
2023/12/29 10:04:15;;;;;;;4.13;2.33;;;10.60;99.90;;;;;;5074540;28;20423;-67
2023/12/29 10:06:46;;;;;;;3.23;3.03;;;10.30;99.90;;;;;;5074163;28;20451;-67
2023/12/29 10:09:14;;;;;;;3.23;2.87;;;10.30;99.90;;;;;;5074556;28;20549;-67
2023/12/29 10:11:41;;;;;;;2.77;2.57;;;10.80;99.90;;;;;;5074483;28;20443;-67
2023/12/29 10:14:20;;;;;;;2.73;2.53;;;11.80;99.90;;;;;;5074453;28;20484;-67
2023/12/29 10:16:54;;;;;;;3.47;2.67;;;12.60;99.90;;;;;;5074067;28;20404;-67
2023/12/29 10:19:30;;;;;;;2.50;2.30;;;12.60;99.90;;;;;;5074257;28;20422;-67
2023/12/29 10:22:26;;;;;;;2.70;2.50;;;12.40;99.90;;;;;;5074182;28;20462;-66
2023/12/29 10:24:52;;;;;;;2.83;2.50;;;12.00;99.90;;;;;;5048199;28;20457;-67
2023/12/29 10:27:18;;;;;;;2.50;2.30;;;11.80;99.90;;;;;;5073828;28;20560;-67
2023/12/29 10:29:43;;;;;;;2.90;2.63;;;12.10;99.90;;;;;;5074088;28;20459;-67
2023/12/29 10:32:09;;;;;;;3.27;2.97;;;13.40;99.90;;;;;;5073930;28;20196;-67
2023/12/29 10:34:35;;;;;;;3.50;2.73;;;14.40;99.90;;;;;;5074022;28;20234;-67
2023/12/29 10:37:09;;;;;;;1.70;1.60;;;15.10;99.90;;;;;;5073732;28;20431;-67
2023/12/29 10:39:36;;;;;;;2.13;1.97;;;16.30;99.90;;;;;;5073918;28;20177;-67
2023/12/29 10:42:06;;;;;;;2.00;1.90;;;17.40;99.90;;;;;;5073773;28;20462;-68
2023/12/29 10:44:33;;;;;;;1.77;1.67;;;18.60;99.90;;;;;;5056918;28;20799;-69
2023/12/29 10:47:06;;;;;;;1.83;1.73;;;18.20;99.90;;;;;;5052118;28;20513;-69
2023/12/29 10:49:32;;;;;;;1.83;1.73;;;17.50;99.90;;;;;;5050958;28;20786;-69
2023/12/29 10:51:57;;;;;;;2.10;1.87;;;18.00;99.90;;;;;;5052705;28;20535;-69
2023/12/29 10:54:23;;;;;;;2.23;2.10;;;18.90;99.90;;;;;;5046535;28;20181;-69
2023/12/29 10:57:02;;;;;;;3.03;2.83;;;21.00;99.90;;;;;;5056111;28;20640;-69
2023/12/29 10:59:28;;;;;;;1.53;1.43;;;22.10;97.70;;;;;;5053056;28;20161;-69
2023/12/29 11:01:53;;;;;;;1.67;1.57;;;22.10;95.40;;;;;;5052703;28;20501;-69
2023/12/29 11:04:22;;;;;;;2.07;1.90;;;22.20;95.10;;;;;;5053107;28;20808;-69
2023/12/29 11:06:50;;;;;;;2.30;2.10;;;21.30;97.30;;;;;;5052843;28;20264;-68
2023/12/29 11:09:30;;;;;;;1.87;1.77;;;20.70;97.80;;;;;;5053178;28;21007;-69
2023/12/29 11:12:00;;;;;;;1.70;1.60;;;20.30;99.10;;;;;;5053434;28;20427;-69
2023/12/29 11:14:26;;;;;;;1.50;1.37;;;20.50;98.30;;;;;;5052960;28;20806;-68
2023/12/29 11:16:54;;;;;;;1.80;1.70;;;19.80;99.90;;;;;;5052748;28;20446;-68
2023/12/29 11:19:20;;;;;;;1.97;1.80;;;19.30;99.90;;;;;;5053025;28;20448;-68
2023/12/29 11:21:46;;;;;;;1.90;1.67;;;19.20;99.90;;;;;;5052832;28;20438;-68
2023/12/29 11:24:12;;;;;;;1.93;1.83;;;20.20;99.90;;;;;;5052923;28;20513;-69
2023/12/29 11:26:38;;;;;;;1.80;1.63;;;21.40;95.70;;;;;;5052413;28;20504;-68
2023/12/29 11:29:04;;;;;;;2.07;1.90;;;21.60;92.90;;;;;;5052317;28;20539;-68
2023/12/29 11:31:31;;;;;;;4.30;1.63;;;21.90;91.40;;;;;;5052907;28;20498;-68
2023/12/29 11:34:37;;;;;;;1.77;1.67;;;22.30;90.00;;;;;;5052635;28;20201;-68
2023/12/29 11:37:28;;;;;;;1.60;1.50;;;20.60;93.10;;;;;;5051944;28;20557;-69
2023/12/29 11:40:10;;;;;;;2.27;2.07;;;21.10;93.40;;;;;;5052731;28;20550;-68
2023/12/29 11:42:40;;;;;;;1.83;1.73;;;21.40;90.90;;;;;;5033104;28;20448;-68
2023/12/29 11:45:28;;;;;;;2.03;1.70;;;21.50;91.60;;;;;;5032746;28;20890;-68
2023/12/29 11:47:55;;;;;;;2.83;2.10;;;20.20;92.50;;;;;;5032357;28;20507;-68
2023/12/29 11:50:29;;;;;;;2.00;1.80;;;19.20;95.90;;;;;;5044166;28;20424;-68
2023/12/29 11:52:56;;;;;;;2.00;1.90;;;17.80;99.90;;;;;;5052325;28;20966;-67
2023/12/29 11:55:27;;;;;;;1.83;1.73;;;16.60;99.90;;;;;;5051963;28;20506;-68
2023/12/29 11:57:53;;;;;;;2.53;2.03;;;15.60;99.90;;;;;;5052143;28;21043;-67
2023/12/29 12:00:18;;;;;;;1.80;1.70;;;15.20;99.90;;;;;;5051632;28;20438;-67
2023/12/29 12:02:44;;;;;;;2.10;2.00;;;16.10;99.90;;;;;;5078066;22;20229;-67
2023/12/29 12:05:10;;;;;;;2.27;2.17;;;16.10;99.90;;;;;;5070955;28;20172;-67
2023/12/29 12:07:36;;;;;;;4.63;1.63;;;15.90;99.90;;;;;;5071995;28;20287;-68
2023/12/29 12:10:23;;;;;;;2.23;2.13;;;15.90;99.90;;;;;;5071749;28;20846;-67
2023/12/29 12:12:51;;;;;;;2.13;2.03;;;15.90;99.90;;;;;;5072030;28;20275;-67
2023/12/29 12:15:32;;;;;;;2.30;2.20;;;16.60;99.90;;;;;;5072116;28;20415;-67
2023/12/29 12:18:07;;;;;;;2.10;2.00;;;15.80;99.90;;;;;;5071870;28;20425;-67
2023/12/29 12:20:33;;;;;;;2.27;2.07;;;14.70;99.90;;;;;;5072065;28;20423;-68
2023/12/29 12:23:12;;;;;;;2.43;2.30;;;14.00;99.90;;;;;;5072134;28;20458;-67
2023/12/29 12:25:39;;;;;;;1.90;1.80;;;14.00;99.90;;;;;;5072027;28;20818;-67
2023/12/29 12:28:06;;;;;;;1.60;1.50;;;14.20;99.90;;;;;;5071783;28;20419;-67
2023/12/29 12:30:36;;;;;;;2.27;2.17;;;14.50;99.90;;;;;;5071930;28;20759;-67
2023/12/29 12:33:03;;;;;;;1.70;1.60;;;14.80;99.90;;;;;;5071955;28;20426;-67
2023/12/29 12:35:29;;;;;;;2.10;1.70;;;15.00;99.90;;;;;;5071983;28;20411;-67
2023/12/29 12:38:13;;;;;;;1.70;1.60;;;14.80;99.90;;;;;;5071609;28;20433;-68
2023/12/29 12:40:39;;;;;;;1.80;1.70;;;15.20;99.90;;;;;;5071886;28;20427;-67
2023/12/29 12:43:04;;;;;;;2.20;2.00;;;15.90;99.90;;;;;;5071845;28;20806;-67
2023/12/29 12:45:35;;;;;;;2.20;2.10;;;16.60;99.90;;;;;;5071784;28;20374;-67
2023/12/29 12:48:10;;;;;;;2.00;1.90;;;17.70;99.90;;;;;;5071554;28;20196;-68
2023/12/29 12:50:35;;;;;;;2.03;1.73;;;18.00;99.90;;;;;;5071729;28;20473;-67
2023/12/29 12:53:05;;;;;;;2.50;2.30;;;17.90;99.90;;;;;;5071812;28;20411;-67
2023/12/29 12:55:35;;;;;;;2.10;2.00;;;18.40;99.90;;;;;;5071760;28;20161;-67